sensor_id;sensor_type;location;lat;lon;timestamp;P1;durP1;ratioP1;P2;durP2;ratioP2
54372;SDS011;40271;48.798;10.178;2022-11-21T00:00:30;0.65;;;0.65;;
54372;SDS011;40271;48.798;10.178;2022-11-21T00:02:58;2.45;;;0.73;;
54372;SDS011;40271;48.798;10.178;2022-11-21T00:05:25;1.90;;;0.52;;
54372;SDS011;40271;48.798;10.178;2022-11-21T00:07:51;0.70;;;0.70;;
54372;SDS011;40271;48.798;10.178;2022-11-21T00:10:17;0.60;;;0.60;;
54372;SDS011;40271;48.798;10.178;2022-11-21T00:12:43;1.73;;;0.75;;
54372;SDS011;40271;48.798;10.178;2022-11-21T00:15:09;0.70;;;0.70;;
54372;SDS011;40271;48.798;10.178;2022-11-21T00:17:35;0.70;;;0.60;;
54372;SDS011;40271;48.798;10.178;2022-11-21T00:20:01;1.95;;;0.80;;
54372;SDS011;40271;48.798;10.178;2022-11-21T00:22:27;1.38;;;0.50;;
54372;SDS011;40271;48.798;10.178;2022-11-21T00:24:53;0.77;;;0.47;;
54372;SDS011;40271;48.798;10.178;2022-11-21T00:27:19;0.68;;;0.50;;
54372;SDS011;40271;48.798;10.178;2022-11-21T00:29:45;2.03;;;1.02;;
54372;SDS011;40271;48.798;10.178;2022-11-21T00:32:11;1.98;;;0.80;;
54372;SDS011;40271;48.798;10.178;2022-11-21T00:34:37;0.50;;;0.50;;
54372;SDS011;40271;48.798;10.178;2022-11-21T00:37:03;0.50;;;0.50;;
54372;SDS011;40271;48.798;10.178;2022-11-21T00:39:29;0.60;;;0.60;;
54372;SDS011;40271;48.798;10.178;2022-11-21T00:41:55;0.45;;;0.45;;
54372;SDS011;40271;48.798;10.178;2022-11-21T00:44:21;1.30;;;0.52;;
54372;SDS011;40271;48.798;10.178;2022-11-21T00:46:47;1.58;;;0.65;;
54372;SDS011;40271;48.798;10.178;2022-11-21T00:49:13;0.60;;;0.60;;
54372;SDS011;40271;48.798;10.178;2022-11-21T00:51:39;1.95;;;0.65;;
54372;SDS011;40271;48.798;10.178;2022-11-21T00:54:05;0.55;;;0.55;;
54372;SDS011;40271;48.798;10.178;2022-11-21T00:56:31;1.85;;;0.73;;
54372;SDS011;40271;48.798;10.178;2022-11-21T00:58:57;2.05;;;0.50;;
54372;SDS011;40271;48.798;10.178;2022-11-21T01:01:23;2.42;;;0.43;;
54372;SDS011;40271;48.798;10.178;2022-11-21T01:03:49;0.60;;;0.50;;
54372;SDS011;40271;48.798;10.178;2022-11-21T01:06:15;0.82;;;0.38;;
54372;SDS011;40271;48.798;10.178;2022-11-21T01:08:42;0.45;;;0.45;;
54372;SDS011;40271;48.798;10.178;2022-11-21T01:11:18;0.45;;;0.43;;
54372;SDS011;40271;48.798;10.178;2022-11-21T01:13:44;0.60;;;0.45;;
54372;SDS011;40271;48.798;10.178;2022-11-21T01:16:12;0.40;;;0.40;;
54372;SDS011;40271;48.798;10.178;2022-11-21T01:18:39;0.60;;;0.60;;
54372;SDS011;40271;48.798;10.178;2022-11-21T01:21:07;0.40;;;0.40;;
54372;SDS011;40271;48.798;10.178;2022-11-21T01:23:33;0.40;;;0.40;;
54372;SDS011;40271;48.798;10.178;2022-11-21T01:26:00;0.52;;;0.52;;
54372;SDS011;40271;48.798;10.178;2022-11-21T01:28:26;0.60;;;0.50;;
54372;SDS011;40271;48.798;10.178;2022-11-21T01:30:52;0.52;;;0.40;;
54372;SDS011;40271;48.798;10.178;2022-11-21T01:33:18;1.23;;;0.47;;
54372;SDS011;40271;48.798;10.178;2022-11-21T01:35:44;0.35;;;0.35;;
54372;SDS011;40271;48.798;10.178;2022-11-21T01:38:10;0.50;;;0.50;;
54372;SDS011;40271;48.798;10.178;2022-11-21T01:40:39;0.50;;;0.50;;
54372;SDS011;40271;48.798;10.178;2022-11-21T01:43:10;0.50;;;0.50;;
54372;SDS011;40271;48.798;10.178;2022-11-21T01:45:53;1.35;;;0.70;;
54372;SDS011;40271;48.798;10.178;2022-11-21T01:48:21;1.15;;;0.50;;
54372;SDS011;40271;48.798;10.178;2022-11-21T01:50:48;1.75;;;0.80;;
54372;SDS011;40271;48.798;10.178;2022-11-21T01:53:14;0.57;;;0.57;;
54372;SDS011;40271;48.798;10.178;2022-11-21T01:55:40;0.60;;;0.60;;
54372;SDS011;40271;48.798;10.178;2022-11-21T01:58:06;1.45;;;0.50;;
54372;SDS011;40271;48.798;10.178;2022-11-21T02:00:34;2.58;;;0.70;;
54372;SDS011;40271;48.798;10.178;2022-11-21T02:03:03;3.92;;;0.57;;
54372;SDS011;40271;48.798;10.178;2022-11-21T02:05:30;1.48;;;0.50;;
54372;SDS011;40271;48.798;10.178;2022-11-21T02:08:00;0.77;;;0.70;;
54372;SDS011;40271;48.798;10.178;2022-11-21T02:10:27;2.00;;;0.80;;
54372;SDS011;40271;48.798;10.178;2022-11-21T02:12:57;1.15;;;0.60;;
54372;SDS011;40271;48.798;10.178;2022-11-21T02:15:27;1.77;;;0.70;;
54372;SDS011;40271;48.798;10.178;2022-11-21T02:17:53;1.58;;;0.50;;
54372;SDS011;40271;48.798;10.178;2022-11-21T02:20:21;1.73;;;0.68;;
54372;SDS011;40271;48.798;10.178;2022-11-21T02:25:20;1.40;;;0.73;;
54372;SDS011;40271;48.798;10.178;2022-11-21T02:27:48;2.00;;;1.00;;
54372;SDS011;40271;48.798;10.178;2022-11-21T02:30:14;1.10;;;0.70;;
54372;SDS011;40271;48.798;10.178;2022-11-21T02:32:41;3.13;;;1.13;;
54372;SDS011;40271;48.798;10.178;2022-11-21T02:35:11;0.90;;;0.63;;
54372;SDS011;40271;48.798;10.178;2022-11-21T02:37:37;0.93;;;0.43;;
54372;SDS011;40271;48.798;10.178;2022-11-21T02:40:07;1.48;;;0.45;;
54372;SDS011;40271;48.798;10.178;2022-11-21T02:42:40;0.70;;;0.70;;
54372;SDS011;40271;48.798;10.178;2022-11-21T02:45:11;0.55;;;0.50;;
54372;SDS011;40271;48.798;10.178;2022-11-21T02:47:38;0.80;;;0.73;;
54372;SDS011;40271;48.798;10.178;2022-11-21T02:50:14;1.10;;;0.75;;
54372;SDS011;40271;48.798;10.178;2022-11-21T02:52:44;1.63;;;0.60;;
54372;SDS011;40271;48.798;10.178;2022-11-21T02:55:10;0.50;;;0.50;;
54372;SDS011;40271;48.798;10.178;2022-11-21T02:57:38;1.35;;;0.60;;
54372;SDS011;40271;48.798;10.178;2022-11-21T03:00:04;4.28;;;0.80;;
54372;SDS011;40271;48.798;10.178;2022-11-21T03:02:30;0.95;;;0.80;;
54372;SDS011;40271;48.798;10.178;2022-11-21T03:04:56;1.55;;;0.60;;
54372;SDS011;40271;48.798;10.178;2022-11-21T03:07:22;1.13;;;0.50;;
54372;SDS011;40271;48.798;10.178;2022-11-21T03:09:48;1.65;;;0.40;;
54372;SDS011;40271;48.798;10.178;2022-11-21T03:12:14;0.40;;;0.40;;
54372;SDS011;40271;48.798;10.178;2022-11-21T03:14:40;0.70;;;0.70;;
54372;SDS011;40271;48.798;10.178;2022-11-21T03:17:06;0.65;;;0.50;;
54372;SDS011;40271;48.798;10.178;2022-11-21T03:19:32;0.43;;;0.40;;
54372;SDS011;40271;48.798;10.178;2022-11-21T03:21:58;1.63;;;0.55;;
54372;SDS011;40271;48.798;10.178;2022-11-21T03:24:24;0.85;;;0.40;;
54372;SDS011;40271;48.798;10.178;2022-11-21T03:26:50;0.68;;;0.55;;
54372;SDS011;40271;48.798;10.178;2022-11-21T03:29:16;0.98;;;0.40;;
54372;SDS011;40271;48.798;10.178;2022-11-21T03:31:42;0.40;;;0.40;;
54372;SDS011;40271;48.798;10.178;2022-11-21T03:34:08;0.88;;;0.40;;
54372;SDS011;40271;48.798;10.178;2022-11-21T03:36:34;0.38;;;0.38;;
54372;SDS011;40271;48.798;10.178;2022-11-21T03:39:00;0.50;;;0.40;;
54372;SDS011;40271;48.798;10.178;2022-11-21T03:41:27;0.45;;;0.30;;
54372;SDS011;40271;48.798;10.178;2022-11-21T03:43:59;1.05;;;0.52;;
54372;SDS011;40271;48.798;10.178;2022-11-21T03:46:26;0.40;;;0.40;;
54372;SDS011;40271;48.798;10.178;2022-11-21T03:48:52;0.47;;;0.40;;
54372;SDS011;40271;48.798;10.178;2022-11-21T03:51:19;0.47;;;0.40;;
54372;SDS011;40271;48.798;10.178;2022-11-21T03:53:45;0.55;;;0.50;;
54372;SDS011;40271;48.798;10.178;2022-11-21T03:56:11;0.40;;;0.40;;
54372;SDS011;40271;48.798;10.178;2022-11-21T03:58:37;1.45;;;0.68;;
54372;SDS011;40271;48.798;10.178;2022-11-21T04:01:03;0.57;;;0.40;;
54372;SDS011;40271;48.798;10.178;2022-11-21T04:03:30;0.38;;;0.38;;
54372;SDS011;40271;48.798;10.178;2022-11-21T04:05:56;0.57;;;0.50;;
54372;SDS011;40271;48.798;10.178;2022-11-21T04:08:22;0.30;;;0.30;;
54372;SDS011;40271;48.798;10.178;2022-11-21T04:10:48;0.40;;;0.40;;
54372;SDS011;40271;48.798;10.178;2022-11-21T04:13:15;0.50;;;0.50;;
54372;SDS011;40271;48.798;10.178;2022-11-21T04:15:41;1.73;;;0.60;;
54372;SDS011;40271;48.798;10.178;2022-11-21T04:18:07;0.47;;;0.47;;
54372;SDS011;40271;48.798;10.178;2022-11-21T04:20:33;0.85;;;0.40;;
54372;SDS011;40271;48.798;10.178;2022-11-21T04:22:59;0.65;;;0.50;;
54372;SDS011;40271;48.798;10.178;2022-11-21T04:25:25;0.50;;;0.50;;
54372;SDS011;40271;48.798;10.178;2022-11-21T04:27:55;0.68;;;0.68;;
54372;SDS011;40271;48.798;10.178;2022-11-21T04:30:21;0.40;;;0.40;;
54372;SDS011;40271;48.798;10.178;2022-11-21T04:32:49;2.10;;;0.50;;
54372;SDS011;40271;48.798;10.178;2022-11-21T04:35:15;0.60;;;0.60;;
54372;SDS011;40271;48.798;10.178;2022-11-21T04:37:41;0.60;;;0.60;;
54372;SDS011;40271;48.798;10.178;2022-11-21T04:40:07;1.52;;;0.90;;
54372;SDS011;40271;48.798;10.178;2022-11-21T04:42:33;3.45;;;0.70;;
54372;SDS011;40271;48.798;10.178;2022-11-21T04:44:59;2.45;;;0.90;;
54372;SDS011;40271;48.798;10.178;2022-11-21T04:47:25;2.83;;;0.75;;
54372;SDS011;40271;48.798;10.178;2022-11-21T04:49:51;1.67;;;1.00;;
54372;SDS011;40271;48.798;10.178;2022-11-21T04:52:17;1.20;;;1.00;;
54372;SDS011;40271;48.798;10.178;2022-11-21T04:54:43;2.38;;;0.90;;
54372;SDS011;40271;48.798;10.178;2022-11-21T04:57:09;1.15;;;0.98;;
54372;SDS011;40271;48.798;10.178;2022-11-21T04:59:35;1.88;;;0.93;;
54372;SDS011;40271;48.798;10.178;2022-11-21T05:02:01;1.25;;;0.77;;
54372;SDS011;40271;48.798;10.178;2022-11-21T05:04:28;1.25;;;0.82;;
54372;SDS011;40271;48.798;10.178;2022-11-21T05:06:54;1.05;;;0.80;;
54372;SDS011;40271;48.798;10.178;2022-11-21T05:09:20;1.45;;;0.90;;
54372;SDS011;40271;48.798;10.178;2022-11-21T05:11:46;2.72;;;0.77;;
54372;SDS011;40271;48.798;10.178;2022-11-21T05:14:30;1.00;;;1.00;;
54372;SDS011;40271;48.798;10.178;2022-11-21T05:16:56;1.75;;;0.60;;
54372;SDS011;40271;48.798;10.178;2022-11-21T05:19:22;1.17;;;0.85;;
54372;SDS011;40271;48.798;10.178;2022-11-21T05:21:48;3.40;;;0.85;;
54372;SDS011;40271;48.798;10.178;2022-11-21T05:24:14;1.75;;;0.77;;
54372;SDS011;40271;48.798;10.178;2022-11-21T05:26:40;2.47;;;1.02;;
54372;SDS011;40271;48.798;10.178;2022-11-21T05:29:06;1.13;;;0.80;;
54372;SDS011;40271;48.798;10.178;2022-11-21T05:31:32;2.30;;;1.05;;
54372;SDS011;40271;48.798;10.178;2022-11-21T05:33:58;1.60;;;1.08;;
54372;SDS011;40271;48.798;10.178;2022-11-21T05:36:24;1.77;;;0.80;;
54372;SDS011;40271;48.798;10.178;2022-11-21T05:38:50;1.83;;;1.10;;
54372;SDS011;40271;48.798;10.178;2022-11-21T05:41:16;0.85;;;0.85;;
54372;SDS011;40271;48.798;10.178;2022-11-21T05:43:42;1.67;;;1.00;;
54372;SDS011;40271;48.798;10.178;2022-11-21T05:46:12;1.98;;;1.20;;
54372;SDS011;40271;48.798;10.178;2022-11-21T05:48:38;1.27;;;0.73;;
54372;SDS011;40271;48.798;10.178;2022-11-21T05:51:04;0.88;;;0.80;;
54372;SDS011;40271;48.798;10.178;2022-11-21T05:53:30;0.95;;;0.68;;
54372;SDS011;40271;48.798;10.178;2022-11-21T05:56:16;1.13;;;0.60;;
54372;SDS011;40271;48.798;10.178;2022-11-21T05:58:42;1.08;;;0.57;;
54372;SDS011;40271;48.798;10.178;2022-11-21T06:01:09;2.72;;;0.80;;
54372;SDS011;40271;48.798;10.178;2022-11-21T06:03:39;1.50;;;0.80;;
54372;SDS011;40271;48.798;10.178;2022-11-21T06:08:32;1.65;;;1.00;;
54372;SDS011;40271;48.798;10.178;2022-11-21T06:10:58;1.42;;;0.82;;
54372;SDS011;40271;48.798;10.178;2022-11-21T06:13:25;1.48;;;1.00;;
54372;SDS011;40271;48.798;10.178;2022-11-21T06:18:17;1.27;;;0.90;;
54372;SDS011;40271;48.798;10.178;2022-11-21T06:20:43;1.02;;;0.90;;
54372;SDS011;40271;48.798;10.178;2022-11-21T06:23:10;0.95;;;0.65;;
54372;SDS011;40271;48.798;10.178;2022-11-21T06:25:36;0.98;;;0.90;;
54372;SDS011;40271;48.798;10.178;2022-11-21T06:28:02;0.60;;;0.60;;
54372;SDS011;40271;48.798;10.178;2022-11-21T06:30:28;1.83;;;1.00;;
54372;SDS011;40271;48.798;10.178;2022-11-21T06:32:54;1.20;;;1.05;;
54372;SDS011;40271;48.798;10.178;2022-11-21T06:35:20;2.63;;;1.40;;
54372;SDS011;40271;48.798;10.178;2022-11-21T06:37:46;1.05;;;0.80;;
54372;SDS011;40271;48.798;10.178;2022-11-21T06:40:12;1.83;;;1.23;;
54372;SDS011;40271;48.798;10.178;2022-11-21T06:42:38;0.85;;;0.85;;
54372;SDS011;40271;48.798;10.178;2022-11-21T06:45:04;1.10;;;0.90;;
54372;SDS011;40271;48.798;10.178;2022-11-21T06:47:34;1.73;;;1.25;;
54372;SDS011;40271;48.798;10.178;2022-11-21T06:50:00;2.80;;;1.08;;
54372;SDS011;40271;48.798;10.178;2022-11-21T06:52:26;3.13;;;1.25;;
54372;SDS011;40271;48.798;10.178;2022-11-21T06:54:52;1.48;;;1.20;;
54372;SDS011;40271;48.798;10.178;2022-11-21T06:57:18;1.17;;;1.00;;
54372;SDS011;40271;48.798;10.178;2022-11-21T06:59:44;2.05;;;0.98;;
54372;SDS011;40271;48.798;10.178;2022-11-21T07:02:13;1.58;;;1.30;;
54372;SDS011;40271;48.798;10.178;2022-11-21T07:04:39;2.60;;;1.17;;
54372;SDS011;40271;48.798;10.178;2022-11-21T07:07:05;1.55;;;1.10;;
54372;SDS011;40271;48.798;10.178;2022-11-21T07:09:32;3.05;;;1.25;;
54372;SDS011;40271;48.798;10.178;2022-11-21T07:11:59;2.83;;;1.20;;
54372;SDS011;40271;48.798;10.178;2022-11-21T07:14:45;1.98;;;1.40;;
54372;SDS011;40271;48.798;10.178;2022-11-21T07:17:11;1.67;;;1.20;;
54372;SDS011;40271;48.798;10.178;2022-11-21T07:19:37;3.70;;;2.10;;
54372;SDS011;40271;48.798;10.178;2022-11-21T07:22:03;2.47;;;1.65;;
54372;SDS011;40271;48.798;10.178;2022-11-21T07:24:29;3.88;;;1.55;;
54372;SDS011;40271;48.798;10.178;2022-11-21T07:26:55;3.45;;;1.52;;
54372;SDS011;40271;48.798;10.178;2022-11-21T07:29:21;2.30;;;1.88;;
54372;SDS011;40271;48.798;10.178;2022-11-21T07:31:48;3.70;;;1.50;;
54372;SDS011;40271;48.798;10.178;2022-11-21T07:34:13;3.40;;;1.42;;
54372;SDS011;40271;48.798;10.178;2022-11-21T07:36:39;4.20;;;1.42;;
54372;SDS011;40271;48.798;10.178;2022-11-21T07:39:05;3.30;;;1.42;;
54372;SDS011;40271;48.798;10.178;2022-11-21T07:41:31;2.58;;;1.25;;
54372;SDS011;40271;48.798;10.178;2022-11-21T07:43:57;1.95;;;1.52;;
54372;SDS011;40271;48.798;10.178;2022-11-21T07:46:23;3.63;;;1.55;;
54372;SDS011;40271;48.798;10.178;2022-11-21T07:48:49;3.38;;;1.33;;
54372;SDS011;40271;48.798;10.178;2022-11-21T07:51:15;2.35;;;1.40;;
54372;SDS011;40271;48.798;10.178;2022-11-21T07:53:41;1.40;;;1.15;;
54372;SDS011;40271;48.798;10.178;2022-11-21T07:56:07;1.75;;;1.00;;
54372;SDS011;40271;48.798;10.178;2022-11-21T07:58:34;2.05;;;1.30;;
54372;SDS011;40271;48.798;10.178;2022-11-21T08:01:03;2.72;;;1.10;;
54372;SDS011;40271;48.798;10.178;2022-11-21T08:03:29;1.67;;;1.20;;
54372;SDS011;40271;48.798;10.178;2022-11-21T08:05:55;1.73;;;1.10;;
54372;SDS011;40271;48.798;10.178;2022-11-21T08:08:21;4.90;;;1.40;;
54372;SDS011;40271;48.798;10.178;2022-11-21T08:10:47;4.15;;;1.30;;
54372;SDS011;40271;48.798;10.178;2022-11-21T08:13:15;4.05;;;1.40;;
54372;SDS011;40271;48.798;10.178;2022-11-21T08:15:41;1.90;;;1.17;;
54372;SDS011;40271;48.798;10.178;2022-11-21T08:18:11;3.47;;;1.17;;
54372;SDS011;40271;48.798;10.178;2022-11-21T08:20:37;2.35;;;1.30;;
54372;SDS011;40271;48.798;10.178;2022-11-21T08:23:04;1.90;;;1.10;;
54372;SDS011;40271;48.798;10.178;2022-11-21T08:25:30;3.70;;;1.23;;
54372;SDS011;40271;48.798;10.178;2022-11-21T08:27:57;4.22;;;1.70;;
54372;SDS011;40271;48.798;10.178;2022-11-21T08:30:23;1.13;;;0.90;;
54372;SDS011;40271;48.798;10.178;2022-11-21T08:32:50;5.03;;;2.60;;
54372;SDS011;40271;48.798;10.178;2022-11-21T08:35:16;6.10;;;2.70;;
54372;SDS011;40271;48.798;10.178;2022-11-21T08:37:42;3.03;;;1.50;;
54372;SDS011;40271;48.798;10.178;2022-11-21T08:40:08;3.10;;;1.58;;
54372;SDS011;40271;48.798;10.178;2022-11-21T08:42:34;4.22;;;1.40;;
54372;SDS011;40271;48.798;10.178;2022-11-21T08:45:02;1.65;;;0.80;;
54372;SDS011;40271;48.798;10.178;2022-11-21T08:47:28;4.65;;;1.17;;
54372;SDS011;40271;48.798;10.178;2022-11-21T08:49:54;3.60;;;1.35;;
54372;SDS011;40271;48.798;10.178;2022-11-21T08:52:20;1.35;;;0.80;;
54372;SDS011;40271;48.798;10.178;2022-11-21T08:54:46;2.53;;;1.10;;
54372;SDS011;40271;48.798;10.178;2022-11-21T08:57:12;2.28;;;1.30;;
54372;SDS011;40271;48.798;10.178;2022-11-21T08:59:38;2.83;;;1.20;;
54372;SDS011;40271;48.798;10.178;2022-11-21T09:02:04;3.53;;;1.30;;
54372;SDS011;40271;48.798;10.178;2022-11-21T09:04:30;1.83;;;1.13;;
54372;SDS011;40271;48.798;10.178;2022-11-21T09:06:56;2.60;;;1.10;;
54372;SDS011;40271;48.798;10.178;2022-11-21T09:09:22;3.63;;;1.00;;
54372;SDS011;40271;48.798;10.178;2022-11-21T09:11:48;1.63;;;0.95;;
54372;SDS011;40271;48.798;10.178;2022-11-21T09:14:14;2.53;;;1.05;;
54372;SDS011;40271;48.798;10.178;2022-11-21T09:16:59;1.88;;;1.10;;
54372;SDS011;40271;48.798;10.178;2022-11-21T09:19:43;1.85;;;1.13;;
54372;SDS011;40271;48.798;10.178;2022-11-21T09:22:09;1.88;;;0.90;;
54372;SDS011;40271;48.798;10.178;2022-11-21T09:24:35;3.00;;;1.45;;
54372;SDS011;40271;48.798;10.178;2022-11-21T09:27:01;2.47;;;1.00;;
54372;SDS011;40271;48.798;10.178;2022-11-21T09:29:27;5.30;;;1.45;;
54372;SDS011;40271;48.798;10.178;2022-11-21T09:31:53;1.75;;;0.90;;
54372;SDS011;40271;48.798;10.178;2022-11-21T09:34:19;3.55;;;1.08;;
54372;SDS011;40271;48.798;10.178;2022-11-21T09:36:45;3.28;;;1.40;;
54372;SDS011;40271;48.798;10.178;2022-11-21T09:39:11;4.47;;;1.50;;
54372;SDS011;40271;48.798;10.178;2022-11-21T09:47:03;2.45;;;1.17;;
54372;SDS011;40271;48.798;10.178;2022-11-21T09:49:32;2.35;;;1.50;;
54372;SDS011;40271;48.798;10.178;2022-11-21T09:52:03;3.75;;;1.20;;
54372;SDS011;40271;48.798;10.178;2022-11-21T09:54:30;2.45;;;1.08;;
54372;SDS011;40271;48.798;10.178;2022-11-21T09:56:58;2.58;;;1.10;;
54372;SDS011;40271;48.798;10.178;2022-11-21T09:59:34;4.97;;;1.65;;
54372;SDS011;40271;48.798;10.178;2022-11-21T10:02:01;1.98;;;1.10;;
54372;SDS011;40271;48.798;10.178;2022-11-21T10:04:28;2.22;;;0.80;;
54372;SDS011;40271;48.798;10.178;2022-11-21T10:07:05;5.03;;;0.80;;
54372;SDS011;40271;48.798;10.178;2022-11-21T10:27:48;1.30;;;0.80;;
54372;SDS011;40271;48.798;10.178;2022-11-21T10:30:16;2.95;;;0.80;;
54372;SDS011;40271;48.798;10.178;2022-11-21T10:32:43;3.92;;;1.00;;
54372;SDS011;40271;48.798;10.178;2022-11-21T10:37:47;2.20;;;0.80;;
54372;SDS011;40271;48.798;10.178;2022-11-21T10:42:45;2.08;;;0.90;;
54372;SDS011;40271;48.798;10.178;2022-11-21T10:45:13;3.08;;;0.90;;
54372;SDS011;40271;48.798;10.178;2022-11-21T10:47:50;1.65;;;0.98;;
54372;SDS011;40271;48.798;10.178;2022-11-21T10:55:23;4.45;;;1.15;;
54372;SDS011;40271;48.798;10.178;2022-11-21T10:57:50;3.03;;;1.02;;
54372;SDS011;40271;48.798;10.178;2022-11-21T11:00:20;5.65;;;1.23;;
54372;SDS011;40271;48.798;10.178;2022-11-21T11:05:35;0.90;;;0.60;;
54372;SDS011;40271;48.798;10.178;2022-11-21T11:08:08;1.27;;;0.85;;
54372;SDS011;40271;48.798;10.178;2022-11-21T11:18:29;2.58;;;0.88;;
54372;SDS011;40271;48.798;10.178;2022-11-21T11:24:40;2.88;;;0.90;;
54372;SDS011;40271;48.798;10.178;2022-11-21T11:31:43;1.23;;;0.80;;
54372;SDS011;40271;48.798;10.178;2022-11-21T11:34:12;4.22;;;1.40;;
54372;SDS011;40271;48.798;10.178;2022-11-21T11:39:17;1.23;;;0.90;;
54372;SDS011;40271;48.798;10.178;2022-11-21T11:47:35;1.42;;;0.80;;
54372;SDS011;40271;48.798;10.178;2022-11-21T11:50:09;2.70;;;1.15;;
54372;SDS011;40271;48.798;10.178;2022-11-21T11:55:16;3.42;;;1.08;;
54372;SDS011;40271;48.798;10.178;2022-11-21T11:57:44;2.45;;;1.10;;
54372;SDS011;40271;48.798;10.178;2022-11-21T12:03:03;5.20;;;0.90;;
54372;SDS011;40271;48.798;10.178;2022-11-21T12:05:27;1.35;;;1.00;;
54372;SDS011;40271;48.798;10.178;2022-11-21T12:08:17;2.88;;;0.77;;
54372;SDS011;40271;48.798;10.178;2022-11-21T12:10:46;1.33;;;0.80;;
54372;SDS011;40271;48.798;10.178;2022-11-21T12:13:32;1.85;;;0.60;;
54372;SDS011;40271;48.798;10.178;2022-11-21T12:16:02;1.25;;;0.80;;
54372;SDS011;40271;48.798;10.178;2022-11-21T12:18:35;3.05;;;1.33;;
54372;SDS011;40271;48.798;10.178;2022-11-21T12:21:04;6.78;;;2.60;;
54372;SDS011;40271;48.798;10.178;2022-11-21T12:33:32;1.35;;;0.77;;
54372;SDS011;40271;48.798;10.178;2022-11-21T12:36:03;3.70;;;0.80;;
54372;SDS011;40271;48.798;10.178;2022-11-21T12:38:39;3.63;;;1.35;;
54372;SDS011;40271;48.798;10.178;2022-11-21T12:47:23;4.28;;;0.70;;
54372;SDS011;40271;48.798;10.178;2022-11-21T12:52:44;2.67;;;0.55;;
54372;SDS011;40271;48.798;10.178;2022-11-21T12:55:34;2.42;;;0.70;;
54372;SDS011;40271;48.798;10.178;2022-11-21T13:00:45;1.85;;;1.30;;
54372;SDS011;40271;48.798;10.178;2022-11-21T13:05:54;1.83;;;0.75;;
54372;SDS011;40271;48.798;10.178;2022-11-21T13:08:23;1.40;;;0.60;;
54372;SDS011;40271;48.798;10.178;2022-11-21T13:13:39;1.25;;;0.70;;
54372;SDS011;40271;48.798;10.178;2022-11-21T13:16:09;2.28;;;0.40;;
54372;SDS011;40271;48.798;10.178;2022-11-21T13:18:40;3.42;;;0.60;;
54372;SDS011;40271;48.798;10.178;2022-11-21T13:21:38;0.55;;;0.43;;
54372;SDS011;40271;48.798;10.178;2022-11-21T13:23:53;1.10;;;0.52;;
54372;SDS011;40271;48.798;10.178;2022-11-21T13:31:32;1.67;;;0.63;;
54372;SDS011;40271;48.798;10.178;2022-11-21T13:33:59;1.17;;;0.60;;
54372;SDS011;40271;48.798;10.178;2022-11-21T13:54:58;4.28;;;0.70;;
54372;SDS011;40271;48.798;10.178;2022-11-21T13:57:32;0.95;;;0.80;;
54372;SDS011;40271;48.798;10.178;2022-11-21T14:07:37;2.30;;;0.60;;
54372;SDS011;40271;48.798;10.178;2022-11-21T14:10:49;2.45;;;0.60;;
54372;SDS011;40271;48.798;10.178;2022-11-21T14:12:50;1.10;;;0.63;;
54372;SDS011;40271;48.798;10.178;2022-11-21T14:25:08;1.52;;;0.68;;
54372;SDS011;40271;48.798;10.178;2022-11-21T14:27:38;1.52;;;0.90;;
54372;SDS011;40271;48.798;10.178;2022-11-21T14:30:24;2.25;;;1.05;;
54372;SDS011;40271;48.798;10.178;2022-11-21T14:32:50;1.88;;;0.80;;
54372;SDS011;40271;48.798;10.178;2022-11-21T14:35:19;2.25;;;0.68;;
54372;SDS011;40271;48.798;10.178;2022-11-21T14:37:46;10.05;;;2.70;;
54372;SDS011;40271;48.798;10.178;2022-11-21T14:40:18;11.43;;;6.68;;
54372;SDS011;40271;48.798;10.178;2022-11-21T14:42:45;8.60;;;5.90;;
54372;SDS011;40271;48.798;10.178;2022-11-21T14:45:16;8.63;;;4.60;;
54372;SDS011;40271;48.798;10.178;2022-11-21T14:47:47;4.35;;;2.67;;
54372;SDS011;40271;48.798;10.178;2022-11-21T14:50:23;1.83;;;0.90;;
54372;SDS011;40271;48.798;10.178;2022-11-21T14:52:49;1.88;;;0.73;;
54372;SDS011;40271;48.798;10.178;2022-11-21T14:55:23;1.25;;;0.77;;
54372;SDS011;40271;48.798;10.178;2022-11-21T14:57:49;5.65;;;2.85;;
54372;SDS011;40271;48.798;10.178;2022-11-21T15:00:18;4.40;;;2.58;;
54372;SDS011;40271;48.798;10.178;2022-11-21T15:02:45;5.88;;;3.08;;
54372;SDS011;40271;48.798;10.178;2022-11-21T15:05:11;6.10;;;3.05;;
54372;SDS011;40271;48.798;10.178;2022-11-21T15:07:42;5.35;;;2.60;;
54372;SDS011;40271;48.798;10.178;2022-11-21T15:10:12;6.18;;;2.22;;
54372;SDS011;40271;48.798;10.178;2022-11-21T15:17:46;2.17;;;1.40;;
54372;SDS011;40271;48.798;10.178;2022-11-21T15:22:39;5.97;;;1.50;;
54372;SDS011;40271;48.798;10.178;2022-11-21T15:27:32;2.47;;;1.40;;
54372;SDS011;40271;48.798;10.178;2022-11-21T15:32:56;4.53;;;2.40;;
54372;SDS011;40271;48.798;10.178;2022-11-21T15:35:53;6.60;;;2.72;;
54372;SDS011;40271;48.798;10.178;2022-11-21T15:43:46;5.63;;;3.05;;
54372;SDS011;40271;48.798;10.178;2022-11-21T15:46:14;7.43;;;3.45;;
54372;SDS011;40271;48.798;10.178;2022-11-21T15:48:41;7.57;;;3.72;;
54372;SDS011;40271;48.798;10.178;2022-11-21T15:51:08;11.15;;;4.88;;
54372;SDS011;40271;48.798;10.178;2022-11-21T15:53:35;16.38;;;6.93;;
54372;SDS011;40271;48.798;10.178;2022-11-21T15:56:01;16.88;;;8.00;;
54372;SDS011;40271;48.798;10.178;2022-11-21T15:58:27;19.42;;;7.28;;
54372;SDS011;40271;48.798;10.178;2022-11-21T16:00:53;14.13;;;7.13;;
54372;SDS011;40271;48.798;10.178;2022-11-21T16:03:19;12.77;;;6.00;;
54372;SDS011;40271;48.798;10.178;2022-11-21T16:05:45;11.23;;;4.97;;
54372;SDS011;40271;48.798;10.178;2022-11-21T16:08:11;25.98;;;9.80;;
54372;SDS011;40271;48.798;10.178;2022-11-21T16:10:37;9.73;;;5.70;;
54372;SDS011;40271;48.798;10.178;2022-11-21T16:13:03;10.68;;;4.72;;
54372;SDS011;40271;48.798;10.178;2022-11-21T16:15:29;13.02;;;5.07;;
54372;SDS011;40271;48.798;10.178;2022-11-21T16:17:55;15.88;;;7.97;;
54372;SDS011;40271;48.798;10.178;2022-11-21T16:20:21;9.70;;;5.88;;
54372;SDS011;40271;48.798;10.178;2022-11-21T16:22:47;8.57;;;4.50;;
54372;SDS011;40271;48.798;10.178;2022-11-21T16:25:13;9.75;;;4.07;;
54372;SDS011;40271;48.798;10.178;2022-11-21T16:27:39;13.18;;;5.85;;
54372;SDS011;40271;48.798;10.178;2022-11-21T16:30:05;13.05;;;6.40;;
54372;SDS011;40271;48.798;10.178;2022-11-21T16:32:32;10.52;;;5.72;;
54372;SDS011;40271;48.798;10.178;2022-11-21T16:34:58;19.10;;;8.27;;
54372;SDS011;40271;48.798;10.178;2022-11-21T16:37:24;23.10;;;11.05;;
54372;SDS011;40271;48.798;10.178;2022-11-21T16:39:50;21.38;;;9.18;;
54372;SDS011;40271;48.798;10.178;2022-11-21T16:42:16;23.05;;;10.57;;
54372;SDS011;40271;48.798;10.178;2022-11-21T16:44:43;17.88;;;8.90;;
54372;SDS011;40271;48.798;10.178;2022-11-21T16:47:09;15.43;;;6.60;;
54372;SDS011;40271;48.798;10.178;2022-11-21T16:49:35;13.48;;;6.05;;
54372;SDS011;40271;48.798;10.178;2022-11-21T16:52:07;14.90;;;6.60;;
54372;SDS011;40271;48.798;10.178;2022-11-21T16:54:33;12.25;;;5.68;;
54372;SDS011;40271;48.798;10.178;2022-11-21T16:56:59;12.48;;;6.35;;
54372;SDS011;40271;48.798;10.178;2022-11-21T16:59:25;9.60;;;4.18;;
54372;SDS011;40271;48.798;10.178;2022-11-21T17:01:51;6.93;;;3.50;;
54372;SDS011;40271;48.798;10.178;2022-11-21T17:04:17;9.68;;;4.05;;
54372;SDS011;40271;48.798;10.178;2022-11-21T17:06:43;8.95;;;4.47;;
54372;SDS011;40271;48.798;10.178;2022-11-21T17:09:12;8.85;;;4.55;;
54372;SDS011;40271;48.798;10.178;2022-11-21T17:11:38;9.23;;;4.80;;
54372;SDS011;40271;48.798;10.178;2022-11-21T17:14:04;8.77;;;4.90;;
54372;SDS011;40271;48.798;10.178;2022-11-21T17:16:31;8.50;;;4.55;;